Time;durP1;ratioP1;P1;durP2;ratioP2;P2;SDS_P1;SDS_P2;PMS_P1;PMS_P2;Temp;Humidity;BMP_temperature;BMP_pressure;BME280_temperature;BME280_humidity;BME280_pressure;Samples;Min_cycle;Max_cycle;Signal;HPM_P1;HPM_P2
2023/12/25 00:00:49;;;;;;;6.25;3.00;;;;;;;;;;5111778;28;20059;-60
2023/12/25 00:03:14;;;;;;;4.57;2.67;;;;;;;;;;5112912;28;20036;-61
2023/12/25 00:05:40;;;;;;;3.53;2.22;;;;;;;;;;5113157;28;20487;-62
2023/12/25 00:08:05;;;;;;;6.63;2.83;;;;;;;;;;5112309;28;20062;-61
2023/12/25 00:10:31;;;;;;;3.78;1.98;;;;;;;;;;5113124;28;20028;-61
2023/12/25 00:12:57;;;;;;;5.07;3.17;;;;;;;;;;5112033;28;20023;-61
2023/12/25 00:15:22;;;;;;;5.35;2.30;;;;;;;;;;5112206;28;20426;-61
2023/12/25 00:17:47;;;;;;;4.47;3.13;;;;;;;;;;5112579;28;20037;-60
2023/12/25 00:20:13;;;;;;;3.08;2.22;;;;;;;;;;5112197;28;20031;-61
2023/12/25 00:22:38;;;;;;;3.88;2.50;;;;;;;;;;5094609;28;20076;-61
2023/12/25 00:25:04;;;;;;;3.72;2.28;;;;;;;;;;5112050;28;20032;-61
2023/12/25 00:27:31;;;;;;;2.80;2.15;;;;;;;;;;5112447;28;20044;-61
2023/12/25 00:29:56;;;;;;;4.00;2.95;;;;;;;;;;5111590;28;20085;-60
2023/12/25 00:32:22;;;;;;;5.95;3.03;;;;;;;;;;5112979;28;20081;-61
2023/12/25 00:34:48;;;;;;;6.15;3.40;;;;;;;;;;5112556;28;20550;-60
2023/12/25 00:37:13;;;;;;;4.68;2.45;;;;;;;;;;5112105;28;20088;-61
2023/12/25 00:39:39;;;;;;;5.07;3.33;;;;;;;;;;5112569;28;20035;-61
2023/12/25 00:42:04;;;;;;;4.22;2.90;;;;;;;;;;5111671;28;20035;-60
2023/12/25 00:44:30;;;;;;;5.22;3.13;;;;;;;;;;5111683;28;20490;-61
2023/12/25 00:46:55;;;;;;;5.78;3.50;;;;;;;;;;5111753;28;20027;-60
2023/12/25 00:49:20;;;;;;;5.25;3.17;;;;;;;;;;5112324;28;20023;-61
2023/12/25 00:51:47;;;;;;;6.03;3.47;;;;;;;;;;5111886;28;20528;-61
2023/12/25 00:54:12;;;;;;;7.38;4.45;;;;;;;;;;5111532;28;20396;-60
2023/12/25 00:56:38;;;;;;;4.60;3.03;;;;;;;;;;5112413;28;20035;-65
2023/12/25 00:59:04;;;;;;;4.60;3.10;;;;;;;;;;5110358;28;20065;-61
2023/12/25 01:01:29;;;;;;;5.72;3.10;;;;;;;;;;5112242;28;20035;-61
2023/12/25 01:03:54;;;;;;;5.45;3.22;;;;;;;;;;5111335;28;20027;-59
2023/12/25 01:06:20;;;;;;;4.88;3.15;;;;;;;;;;5093888;28;20113;-60
2023/12/25 01:08:45;;;;;;;4.22;3.00;;;;;;;;;;5093869;28;20039;-61
2023/12/25 01:11:11;;;;;;;6.47;3.90;;;;;;;;;;5111397;28;20031;-61
2023/12/25 01:13:36;;;;;;;5.38;3.15;;;;;;;;;;5111001;28;20448;-60
2023/12/25 01:16:01;;;;;;;7.55;4.10;;;;;;;;;;5093027;28;20119;-60
2023/12/25 01:18:27;;;;;;;7.43;4.22;;;;;;;;;;5111889;28;20433;-60
2023/12/25 01:20:52;;;;;;;6.38;4.60;;;;;;;;;;5111303;28;20040;-60
2023/12/25 01:23:17;;;;;;;5.05;3.75;;;;;;;;;;5111670;28;20107;-60
2023/12/25 01:25:43;;;;;;;9.23;3.72;;;;;;;;;;5111901;28;20027;-61
2023/12/25 01:28:08;;;;;;;4.65;2.70;;;;;;;;;;5109564;28;20016;-60
2023/12/25 01:30:34;;;;;;;4.70;2.83;;;;;;;;;;5111653;28;20038;-61
2023/12/25 01:32:59;;;;;;;3.45;2.45;;;;;;;;;;5111309;28;20107;-61
2023/12/25 01:35:24;;;;;;;3.47;2.67;;;;;;;;;;5111978;28;20032;-61
2023/12/25 01:37:50;;;;;;;6.00;3.10;;;;;;;;;;5111871;28;20023;-61
2023/12/25 01:40:16;;;;;;;5.90;3.38;;;;;;;;;;5111108;28;20023;-61
2023/12/25 01:42:42;;;;;;;4.35;3.42;;;;;;;;;;5111392;28;20039;-61
2023/12/25 01:45:09;;;;;;;3.33;2.00;;;;;;;;;;5110575;28;20097;-61
2023/12/25 01:47:35;;;;;;;4.80;2.88;;;;;;;;;;5111621;28;20031;-61
2023/12/25 01:50:02;;;;;;;6.80;3.03;;;;;;;;;;5110995;28;20031;-61
2023/12/25 01:52:28;;;;;;;7.38;3.33;;;;;;;;;;5111626;28;20111;-61
2023/12/25 01:54:56;;;;;;;5.00;3.65;;;;;;;;;;5111171;28;20107;-60
2023/12/25 01:57:21;;;;;;;7.25;4.15;;;;;;;;;;5111593;28;20031;-61
2023/12/25 01:59:47;;;;;;;6.65;4.53;;;;;;;;;;5109882;28;20030;-61
2023/12/25 02:02:13;;;;;;;6.32;4.25;;;;;;;;;;5111038;28;20560;-61
2023/12/25 02:04:38;;;;;;;6.72;4.82;;;;;;;;;;5097021;28;20028;-61
2023/12/25 02:07:03;;;;;;;6.78;4.20;;;;;;;;;;5114667;28;20134;-62
2023/12/25 02:09:29;;;;;;;7.97;5.35;;;;;;;;;;5115372;28;20118;-62
2023/12/25 02:11:54;;;;;;;8.55;5.60;;;;;;;;;;5115193;28;20084;-60
2023/12/25 02:14:20;;;;;;;8.70;4.53;;;;;;;;;;5113223;28;20080;-61
2023/12/25 02:16:46;;;;;;;6.15;4.03;;;;;;;;;;5115043;28;20058;-61
2023/12/25 02:19:29;;;;;;;6.18;4.35;;;;;;;;;;5114100;28;20083;-60
2023/12/25 02:21:58;;;;;;;5.45;3.72;;;;;;;;;;5114883;28;20051;-61
2023/12/25 02:24:27;;;;;;;5.40;3.13;;;;;;;;;;5114974;28;20027;-62
2023/12/25 02:26:53;;;;;;;7.65;3.53;;;;;;;;;;5115511;28;20067;-61
2023/12/25 02:29:18;;;;;;;6.45;3.30;;;;;;;;;;5113006;28;20066;-61
2023/12/25 02:31:48;;;;;;;6.18;3.95;;;;;;;;;;5114341;28;20031;-61
2023/12/25 02:34:14;;;;;;;6.13;3.67;;;;;;;;;;5114078;28;20065;-62
2023/12/25 02:36:39;;;;;;;6.00;3.55;;;;;;;;;;5115062;28;20032;-61
2023/12/25 02:39:04;;;;;;;5.65;3.28;;;;;;;;;;5114087;28;20032;-60
2023/12/25 02:41:30;;;;;;;5.63;3.72;;;;;;;;;;5114630;28;20091;-62
2023/12/25 02:43:56;;;;;;;7.80;4.55;;;;;;;;;;5114194;28;20028;-61
2023/12/25 02:46:21;;;;;;;6.05;3.40;;;;;;;;;;5112200;28;20034;-61
2023/12/25 02:48:46;;;;;;;11.77;6.38;;;;;;;;;;5114451;28;20393;-61
2023/12/25 02:51:12;;;;;;;5.78;3.55;;;;;;;;;;5113858;28;20027;-61
2023/12/25 02:53:37;;;;;;;6.00;3.60;;;;;;;;;;5114748;28;20028;-62
2023/12/25 02:56:03;;;;;;;7.35;4.57;;;;;;;;;;5095280;28;20035;-62
2023/12/25 02:58:29;;;;;;;9.00;5.60;;;;;;;;;;5112204;28;20032;-63
2023/12/25 03:00:54;;;;;;;10.35;5.47;;;;;;;;;;5095584;28;20468;-62
2023/12/25 03:03:19;;;;;;;5.65;3.45;;;;;;;;;;5113047;28;20042;-62
2023/12/25 03:05:45;;;;;;;5.00;3.08;;;;;;;;;;5114469;28;20089;-61
2023/12/25 03:08:10;;;;;;;6.28;3.50;;;;;;;;;;5113302;28;20031;-61
2023/12/25 03:10:35;;;;;;;5.03;3.72;;;;;;;;;;5114543;28;20081;-62
2023/12/25 03:13:01;;;;;;;5.85;3.65;;;;;;;;;;5112680;28;20028;-60
2023/12/25 03:15:27;;;;;;;6.72;3.80;;;;;;;;;;5113469;28;20032;-61
2023/12/25 03:17:52;;;;;;;6.88;4.47;;;;;;;;;;5113120;28;20072;-61
2023/12/25 03:20:17;;;;;;;7.82;4.22;;;;;;;;;;5112386;28;20032;-61
2023/12/25 03:22:44;;;;;;;7.50;4.90;;;;;;;;;;5113988;28;20472;-61
2023/12/25 03:25:10;;;;;;;13.68;5.85;;;;;;;;;;5113013;28;20034;-62
2023/12/25 03:27:35;;;;;;;5.88;4.10;;;;;;;;;;5112460;28;20020;-61
2023/12/25 03:30:01;;;;;;;7.47;4.80;;;;;;;;;;5113203;28;20027;-58
2023/12/25 03:32:26;;;;;;;7.57;5.18;;;;;;;;;;5113903;28;20115;-60
2023/12/25 03:34:52;;;;;;;5.65;4.20;;;;;;;;;;5095466;28;20396;-60
2023/12/25 03:37:17;;;;;;;9.95;4.10;;;;;;;;;;5112904;28;20058;-62
2023/12/25 03:39:43;;;;;;;5.85;3.78;;;;;;;;;;5113841;28;20036;-61
2023/12/25 03:42:08;;;;;;;5.03;3.50;;;;;;;;;;5111824;28;20016;-61
2023/12/25 03:44:34;;;;;;;6.88;4.30;;;;;;;;;;5113275;28;20396;-61
2023/12/25 03:46:59;;;;;;;5.85;4.07;;;;;;;;;;5113467;28;20080;-60
2023/12/25 03:49:25;;;;;;;7.65;5.00;;;;;;;;;;5112902;28;20087;-61
2023/12/25 03:51:50;;;;;;;7.50;4.38;;;;;;;;;;5113177;28;20464;-61
2023/12/25 03:54:16;;;;;;;6.57;4.38;;;;;;;;;;5112820;28;20486;-60
2023/12/25 03:56:41;;;;;;;8.60;5.68;;;;;;;;;;5113292;28;20036;-60
2023/12/25 03:59:08;;;;;;;6.68;4.63;;;;;;;;;;5111301;28;20030;-60
2023/12/25 04:01:38;;;;;;;6.28;4.38;;;;;;;;;;5112439;28;20495;-61
2023/12/25 04:04:03;;;;;;;7.78;5.57;;;;;;;;;;5111562;28;20035;-60
2023/12/25 04:06:29;;;;;;;7.57;4.47;;;;;;;;;;5112521;28;20085;-62
2023/12/25 04:08:54;;;;;;;5.28;3.97;;;;;;;;;;5113250;28;20039;-63
2023/12/25 04:11:21;;;;;;;4.97;3.17;;;;;;;;;;5112147;28;20518;-62
2023/12/25 04:13:47;;;;;;;7.50;3.97;;;;;;;;;;5112904;28;20030;-63
2023/12/25 04:16:22;;;;;;;6.88;4.20;;;;;;;;;;5112092;28;20517;-64
2023/12/25 04:18:47;;;;;;;6.05;3.38;;;;;;;;;;5112883;28;20036;-63
2023/12/25 04:21:33;;;;;;;4.75;3.47;;;;;;;;;;5110459;28;20092;-63
2023/12/25 04:23:59;;;;;;;6.00;4.10;;;;;;;;;;5112158;28;20039;-63
2023/12/25 04:26:25;;;;;;;7.70;4.65;;;;;;;;;;5111540;28;20036;-63
2023/12/25 04:28:51;;;;;;;5.03;3.65;;;;;;;;;;5112856;28;20042;-63
2023/12/25 04:31:17;;;;;;;6.72;4.40;;;;;;;;;;5111897;28;20020;-62
2023/12/25 04:33:43;;;;;;;5.25;4.07;;;;;;;;;;5112596;28;20035;-63
2023/12/25 04:36:09;;;;;;;3.03;2.22;;;;;;;;;;5111946;28;20396;-62
2023/12/25 04:38:36;;;;;;;3.50;2.58;;;;;;;;;;5093198;28;20031;-62
2023/12/25 04:41:02;;;;;;;4.95;2.80;;;;;;;;;;5112291;28;20030;-60
2023/12/25 04:43:27;;;;;;;3.53;2.47;;;;;;;;;;5111750;28;20028;-61
2023/12/25 04:45:53;;;;;;;3.70;2.70;;;;;;;;;;5112176;28;20063;-61
2023/12/25 04:48:18;;;;;;;4.88;2.70;;;;;;;;;;5111687;28;20453;-60
2023/12/25 04:50:44;;;;;;;3.88;2.85;;;;;;;;;;5111640;28;20104;-61
2023/12/25 04:53:10;;;;;;;3.65;2.65;;;;;;;;;;5093462;28;20032;-61
2023/12/25 04:55:37;;;;;;;3.83;2.70;;;;;;;;;;5112042;28;20023;-60
2023/12/25 04:58:03;;;;;;;3.10;2.50;;;;;;;;;;5112374;28;20059;-60
2023/12/25 05:00:28;;;;;;;4.32;2.45;;;;;;;;;;5111796;28;20059;-61
2023/12/25 05:02:54;;;;;;;4.90;2.95;;;;;;;;;;5110677;28;20450;-61
2023/12/25 05:05:19;;;;;;;3.50;2.45;;;;;;;;;;5110709;28;20084;-61
2023/12/25 05:07:48;;;;;;;5.03;3.05;;;;;;;;;;5092610;28;20122;-62
2023/12/25 05:10:14;;;;;;;4.20;2.88;;;;;;;;;;5111243;28;20039;-60
2023/12/25 05:12:39;;;;;;;5.55;3.30;;;;;;;;;;5093704;28;20383;-62
2023/12/25 05:15:05;;;;;;;5.40;3.40;;;;;;;;;;5111574;28;20058;-60
2023/12/25 05:17:31;;;;;;;4.32;2.97;;;;;;;;;;5111551;28;20028;-61
2023/12/25 05:19:56;;;;;;;6.25;3.35;;;;;;;;;;5111479;28;20038;-61
2023/12/25 05:22:21;;;;;;;7.43;4.00;;;;;;;;;;5111434;28;20078;-60
2023/12/25 05:24:47;;;;;;;6.43;3.92;;;;;;;;;;5112001;28;20497;-61
2023/12/25 05:27:13;;;;;;;5.35;3.72;;;;;;;;;;5111322;28;20368;-61
2023/12/25 05:29:39;;;;;;;7.38;3.45;;;;;;;;;;5093531;28;20032;-61
2023/12/25 05:32:05;;;;;;;6.30;4.22;;;;;;;;;;5112424;28;20054;-61
2023/12/25 05:34:30;;;;;;;7.10;3.53;;;;;;;;;;5110821;28;20053;-61
2023/12/25 05:36:55;;;;;;;3.95;2.72;;;;;;;;;;5112785;28;20081;-61
2023/12/25 05:39:21;;;;;;;5.10;3.30;;;;;;;;;;5115081;28;20028;-61
2023/12/25 05:41:47;;;;;;;6.80;3.72;;;;;;;;;;5097898;28;20026;-61
2023/12/25 05:44:12;;;;;;;5.30;3.50;;;;;;;;;;5115175;28;20115;-61
2023/12/25 05:46:38;;;;;;;3.25;2.30;;;;;;;;;;5115826;28;20030;-61
2023/12/25 05:49:04;;;;;;;4.38;2.30;;;;;;;;;;5116039;28;20020;-62
2023/12/25 05:51:30;;;;;;;2.13;1.60;;;;;;;;;;5111407;28;20573;-62
2023/12/25 05:53:55;;;;;;;3.45;1.85;;;;;;;;;;5115685;28;20031;-63
2023/12/25 05:56:21;;;;;;;2.42;1.80;;;;;;;;;;5115003;28;20031;-63
2023/12/25 05:58:46;;;;;;;3.00;2.10;;;;;;;;;;5115821;28;20059;-64
2023/12/25 06:01:13;;;;;;;3.50;1.70;;;;;;;;;;5114962;28;20024;-64
2023/12/25 06:03:39;;;;;;;2.22;1.70;;;;;;;;;;5115694;28;20031;-62
2023/12/25 06:06:05;;;;;;;2.38;1.60;;;;;;;;;;5096410;28;20023;-59
2023/12/25 06:08:31;;;;;;;3.13;1.98;;;;;;;;;;5113421;28;20083;-60
2023/12/25 06:11:00;;;;;;;2.90;1.98;;;;;;;;;;5115291;28;20031;-61
2023/12/25 06:13:25;;;;;;;2.17;1.85;;;;;;;;;;5114570;28;20066;-61
2023/12/25 06:15:51;;;;;;;1.73;1.48;;;;;;;;;;5115081;28;20070;-61
2023/12/25 06:18:17;;;;;;;2.90;2.17;;;;;;;;;;5114912;28;20368;-61
2023/12/25 06:20:42;;;;;;;2.80;2.03;;;;;;;;;;5113958;28;20392;-61
2023/12/25 06:23:08;;;;;;;3.30;2.10;;;;;;;;;;5114750;28;20047;-60
2023/12/25 06:25:33;;;;;;;5.68;3.55;;;;;;;;;;5114448;28;20028;-60
2023/12/25 06:27:58;;;;;;;6.50;2.25;;;;;;;;;;5115047;28;20024;-60
2023/12/25 06:30:24;;;;;;;4.72;2.25;;;;;;;;;;5114221;28;20399;-60
2023/12/25 06:32:50;;;;;;;3.42;1.70;;;;;;;;;;5096989;28;20059;-60
2023/12/25 06:35:16;;;;;;;2.30;1.30;;;;;;;;;;5113964;28;20070;-59
2023/12/25 06:37:41;;;;;;;3.22;1.65;;;;;;;;;;5112752;28;20067;-60
2023/12/25 06:40:07;;;;;;;2.25;1.60;;;;;;;;;;5115044;28;20471;-60
2023/12/25 06:42:32;;;;;;;1.67;1.40;;;;;;;;;;5114088;28;20265;-62
2023/12/25 06:44:58;;;;;;;2.55;1.10;;;;;;;;;;5114742;28;20118;-62
2023/12/25 06:47:23;;;;;;;2.33;1.35;;;;;;;;;;5114097;28;20477;-60
2023/12/25 06:49:49;;;;;;;1.60;1.23;;;;;;;;;;5114539;28;20034;-60
2023/12/25 06:52:14;;;;;;;1.42;1.00;;;;;;;;;;5112695;28;20031;-58
2023/12/25 06:54:39;;;;;;;0.88;0.88;;;;;;;;;;5113919;28;20532;-60
2023/12/25 06:57:05;;;;;;;2.13;1.20;;;;;;;;;;5114519;28;20035;-62
2023/12/25 06:59:30;;;;;;;0.95;0.95;;;;;;;;;;5113601;28;20038;-60
2023/12/25 07:01:56;;;;;;;1.60;1.23;;;;;;;;;;5113472;28;20084;-60
2023/12/25 07:04:22;;;;;;;1.45;1.15;;;;;;;;;;5113594;28;20033;-61
2023/12/25 07:06:48;;;;;;;1.33;1.23;;;;;;;;;;5114260;28;20032;-61
2023/12/25 07:09:14;;;;;;;3.63;2.10;;;;;;;;;;5113990;28;20375;-61
2023/12/25 07:11:41;;;;;;;3.78;1.77;;;;;;;;;;5114474;28;20030;-62
2023/12/25 07:14:07;;;;;;;1.90;1.70;;;;;;;;;;5113479;28;20110;-62
2023/12/25 07:16:33;;;;;;;1.58;1.40;;;;;;;;;;5110287;28;20195;-63
2023/12/25 07:19:01;;;;;;;2.55;1.90;;;;;;;;;;5114013;28;20024;-63
2023/12/25 07:21:27;;;;;;;2.78;2.22;;;;;;;;;;5094451;28;20046;-62
2023/12/25 07:23:52;;;;;;;4.20;2.17;;;;;;;;;;5113796;28;20027;-61
2023/12/25 07:26:18;;;;;;;3.30;2.10;;;;;;;;;;5093792;28;20031;-62
2023/12/25 07:28:44;;;;;;;2.85;2.00;;;;;;;;;;5114185;28;20031;-62
2023/12/25 07:31:10;;;;;;;1.85;1.42;;;;;;;;;;5114169;28;20486;-62
2023/12/25 07:33:36;;;;;;;1.35;1.25;;;;;;;;;;5113188;28;20031;-62
2023/12/25 07:36:03;;;;;;;1.15;1.05;;;;;;;;;;5113588;28;20050;-61
2023/12/25 07:38:29;;;;;;;2.22;1.13;;;;;;;;;;5113025;28;20465;-61
2023/12/25 07:40:55;;;;;;;2.00;1.10;;;;;;;;;;5112343;28;20028;-62
2023/12/25 07:43:21;;;;;;;1.02;0.93;;;;;;;;;;5112859;28;20382;-61
2023/12/25 07:45:47;;;;;;;1.38;1.20;;;;;;;;;;5113312;28;20032;-62
2023/12/25 07:48:12;;;;;;;1.50;0.95;;;;;;;;;;5113884;28;20372;-63
2023/12/25 07:50:38;;;;;;;1.33;1.20;;;;;;;;;;5112677;28;20085;-61
2023/12/25 07:53:04;;;;;;;1.58;1.20;;;;;;;;;;5113449;28;20034;-62
2023/12/25 07:55:30;;;;;;;1.40;1.20;;;;;;;;;;5111158;28;20038;-61
2023/12/25 07:57:56;;;;;;;1.10;1.00;;;;;;;;;;5095193;28;20035;-61
2023/12/25 08:00:22;;;;;;;1.20;1.10;;;;;;;;;;5111900;28;20429;-59
2023/12/25 08:02:47;;;;;;;2.20;0.95;;;;;;;;;;5113443;28;20062;-59
2023/12/25 08:05:13;;;;;;;3.60;1.10;;;;;;;;;;5111202;28;20376;-61
2023/12/25 08:07:38;;;;;;;1.60;1.10;;;;;;;;;;5112335;28;20460;-62
2023/12/25 08:10:04;;;;;;;1.20;1.10;;;;;;;;;;5113142;28;20108;-61
2023/12/25 08:12:32;;;;;;;1.00;0.90;;;;;;;;;;5112409;28;20089;-62
2023/12/25 08:14:57;;;;;;;1.45;1.17;;;;;;;;;;5112495;28;20035;-60
2023/12/25 08:17:23;;;;;;;3.13;1.17;;;;;;;;;;5112258;28;20106;-59
2023/12/25 08:19:48;;;;;;;2.35;1.10;;;;;;;;;;5094760;28;20027;-60
2023/12/25 08:22:16;;;;;;;1.33;0.90;;;;;;;;;;5112527;28;20384;-61
2023/12/25 08:24:42;;;;;;;1.90;0.77;;;;;;;;;;5111921;28;20039;-59
2023/12/25 08:27:08;;;;;;;1.13;1.02;;;;;;;;;;5112475;28;20038;-60
2023/12/25 08:29:39;;;;;;;1.33;1.08;;;;;;;;;;5111355;28;20387;-60
2023/12/25 08:32:08;;;;;;;1.73;1.40;;;;;;;;;;5112579;28;20145;-60
2023/12/25 08:34:37;;;;;;;2.20;1.30;;;;;;;;;;5111681;28;20024;-60
2023/12/25 08:37:03;;;;;;;2.30;1.20;;;;;;;;;;5112720;28;20034;-59
2023/12/25 08:39:28;;;;;;;3.67;1.20;;;;;;;;;;5111828;28;20433;-59
2023/12/25 08:41:54;;;;;;;1.88;1.17;;;;;;;;;;5112675;28;20038;-60
2023/12/25 08:44:19;;;;;;;3.85;1.30;;;;;;;;;;5111965;28;20032;-61
2023/12/25 08:46:46;;;;;;;2.45;1.40;;;;;;;;;;5110181;28;20038;-62
2023/12/25 08:49:11;;;;;;;2.58;1.08;;;;;;;;;;5094221;28;20054;-62
2023/12/25 08:51:38;;;;;;;2.78;1.20;;;;;;;;;;5111211;28;20597;-61
2023/12/25 08:54:03;;;;;;;1.65;1.20;;;;;;;;;;5112445;28;20031;-61
2023/12/25 08:56:29;;;;;;;1.92;1.13;;;;;;;;;;5111166;28;20028;-62
2023/12/25 08:58:54;;;;;;;4.05;1.20;;;;;;;;;;5112412;28;20381;-62
2023/12/25 09:01:24;;;;;;;2.90;1.10;;;;;;;;;;5110035;28;20038;-61
2023/12/25 09:03:49;;;;;;;2.87;1.40;;;;;;;;;;5094050;28;20027;-60
2023/12/25 09:06:15;;;;;;;4.68;2.05;;;;;;;;;;5112118;28;20027;-60
2023/12/25 09:08:41;;;;;;;3.78;1.15;;;;;;;;;;5110870;28;20606;-60
2023/12/25 09:11:09;;;;;;;3.25;1.42;;;;;;;;;;5112267;28;20028;-62
2023/12/25 09:13:34;;;;;;;1.23;1.05;;;;;;;;;;5104410;28;20031;-60
2023/12/25 09:16:00;;;;;;;3.00;1.20;;;;;;;;;;5111947;28;20046;-60
2023/12/25 09:18:26;;;;;;;3.83;1.20;;;;;;;;;;5110786;28;20063;-61
2023/12/25 09:20:51;;;;;;;4.32;1.35;;;;;;;;;;5111621;28;20043;-60
2023/12/25 09:23:18;;;;;;;2.55;1.30;;;;;;;;;;5111627;28;20020;-61
2023/12/25 09:25:43;;;;;;;4.50;1.40;;;;;;;;;;5101314;28;20430;-61
2023/12/25 09:28:09;;;;;;;1.98;1.10;;;;;;;;;;5105025;28;20028;-62
2023/12/25 09:30:34;;;;;;;3.60;1.50;;;;;;;;;;5110726;28;20134;-63
2023/12/25 09:33:00;;;;;;;2.85;1.27;;;;;;;;;;5111722;28;20024;-62
2023/12/25 09:35:25;;;;;;;2.88;1.60;;;;;;;;;;5111019;28;20053;-61
2023/12/25 09:37:51;;;;;;;2.65;1.23;;;;;;;;;;5111833;28;20023;-60
2023/12/25 09:40:16;;;;;;;4.18;2.10;;;;;;;;;;5111277;28;20059;-60
2023/12/25 09:42:43;;;;;;;3.35;1.77;;;;;;;;;;5104728;28;20020;-60
2023/12/25 09:45:09;;;;;;;4.30;1.80;;;;;;;;;;5104868;28;20035;-60
2023/12/25 09:47:35;;;;;;;3.25;1.55;;;;;;;;;;5101127;28;20506;-60
2023/12/25 09:50:03;;;;;;;4.63;2.05;;;;;;;;;;5101982;28;20028;-60
2023/12/25 09:52:32;;;;;;;3.15;1.60;;;;;;;;;;5110575;28;20030;-60
2023/12/25 09:54:57;;;;;;;3.92;1.30;;;;;;;;;;5111075;28;20044;-62
2023/12/25 09:57:25;;;;;;;4.38;1.80;;;;;;;;;;5111373;28;20117;-59
2023/12/25 09:59:52;;;;;;;2.60;1.33;;;;;;;;;;5111462;28;20035;-60
2023/12/25 10:02:21;;;;;;;2.17;1.65;;;;;;;;;;5110260;28;20036;-60
2023/12/25 10:04:49;;;;;;;4.03;2.08;;;;;;;;;;5110160;28;20088;-61
2023/12/25 10:07:16;;;;;;;3.97;1.85;;;;;;;;;;5092367;28;20038;-61
2023/12/25 10:09:44;;;;;;;3.40;2.28;;;;;;;;;;5104980;28;20107;-60
2023/12/25 10:12:10;;;;;;;4.60;2.35;;;;;;;;;;5091030;28;20028;-61
2023/12/25 10:14:38;;;;;;;4.00;2.25;;;;;;;;;;5090303;28;20031;-61
2023/12/25 10:17:04;;;;;;;2.85;1.90;;;;;;;;;;5104351;28;20396;-61
2023/12/25 10:19:30;;;;;;;6.32;1.90;;;;;;;;;;5109885;28;20019;-59
2023/12/25 10:21:55;;;;;;;3.75;1.88;;;;;;;;;;5111919;28;20078;-60
2023/12/25 10:24:27;;;;;;;3.28;1.90;;;;;;;;;;5113615;28;20027;-60
2023/12/25 10:26:57;;;;;;;2.38;1.67;;;;;;;;;;5114383;28;20088;-60
2023/12/25 10:29:33;;;;;;;3.92;2.22;;;;;;;;;;5114471;28;20038;-61
2023/12/25 10:32:15;;;;;;;6.50;1.73;;;;;;;;;;5115272;28;20035;-60
2023/12/25 10:34:41;;;;;;;3.42;2.00;;;;;;;;;;5113939;28;20034;-60
2023/12/25 10:37:06;;;;;;;3.97;1.80;;;;;;;;;;5114825;28;20047;-60
2023/12/25 10:39:33;;;;;;;3.97;1.88;;;;;;;;;;5109870;28;20032;-59
2023/12/25 10:41:59;;;;;;;2.58;1.63;;;;;;;;;;5076674;28;20028;-60
2023/12/25 10:44:25;;;;;;;3.38;2.20;;;;;;;;;;5075956;28;20040;-60
2023/12/25 10:46:52;;;;;;;3.75;1.90;;;;;;;;;;5093874;28;20039;-60
2023/12/25 10:49:20;;;;;;;4.13;2.60;;;;;;;;;;5105474;28;20036;-61
2023/12/25 10:51:47;;;;;;;3.90;2.72;;;;;;;;;;5112083;28;20111;-62
2023/12/25 10:54:14;;;;;;;5.38;2.42;;;;;;;;;;5113617;28;20082;-64
2023/12/25 10:56:40;;;;;;;3.60;2.08;;;;;;;;;;5113690;28;20524;-62
2023/12/25 10:59:31;;;;;;;3.80;2.55;;;;;;;;;;5108659;28;20040;-61
2023/12/25 11:02:02;;;;;;;3.42;2.10;;;;;;;;;;5113663;28;20039;-59
2023/12/25 11:04:29;;;;;;;7.13;2.35;;;;;;;;;;5112476;28;20039;-60
2023/12/25 11:06:56;;;;;;;4.20;1.83;;;;;;;;;;5113419;28;20035;-61
2023/12/25 11:09:22;;;;;;;3.83;1.83;;;;;;;;;;5113403;28;20451;-61
2023/12/25 11:11:48;;;;;;;3.42;1.67;;;;;;;;;;5107366;28;20027;-62
2023/12/25 11:14:14;;;;;;;5.18;2.05;;;;;;;;;;5114441;28;20042;-62
2023/12/25 11:16:40;;;;;;;6.05;3.10;;;;;;;;;;5111184;28;20027;-61
2023/12/25 11:19:05;;;;;;;10.18;4.82;;;;;;;;;;5111226;28;20040;-60
2023/12/25 11:21:33;;;;;;;7.82;3.58;;;;;;;;;;5111973;28;20122;-61
2023/12/25 11:24:00;;;;;;;7.00;3.50;;;;;;;;;;5113146;28;20027;-60
2023/12/25 11:26:29;;;;;;;8.68;3.92;;;;;;;;;;5112926;28;20035;-62
2023/12/25 11:29:08;;;;;;;4.72;3.00;;;;;;;;;;5113405;28;20501;-61
2023/12/25 11:31:47;;;;;;;5.03;2.72;;;;;;;;;;5112549;28;20032;-61
2023/12/25 11:34:21;;;;;;;3.08;2.10;;;;;;;;;;5113192;28;20035;-62
2023/12/25 11:36:49;;;;;;;4.25;2.33;;;;;;;;;;5111918;28;20269;-62
2023/12/25 11:39:15;;;;;;;3.70;2.35;;;;;;;;;;5113223;28;20105;-62
2023/12/25 11:41:40;;;;;;;4.55;2.40;;;;;;;;;;5111468;28;20039;-61
2023/12/25 11:44:07;;;;;;;3.47;2.47;;;;;;;;;;5110867;28;20467;-62
2023/12/25 11:46:35;;;;;;;3.83;2.22;;;;;;;;;;5103470;28;20042;-61
2023/12/25 11:49:00;;;;;;;4.22;2.33;;;;;;;;;;5112995;28;20376;-60
2023/12/25 11:51:29;;;;;;;3.70;2.40;;;;;;;;;;5113559;28;20121;-61
2023/12/25 11:53:59;;;;;;;4.47;2.67;;;;;;;;;;5113019;28;20023;-61
2023/12/25 11:56:24;;;;;;;6.63;3.03;;;;;;;;;;5113446;28;20127;-61
2023/12/25 11:58:52;;;;;;;4.95;2.80;;;;;;;;;;5102735;28;20633;-60
2023/12/25 12:01:18;;;;;;;4.80;2.80;;;;;;;;;;5107339;28;20379;-62
2023/12/25 12:03:48;;;;;;;4.63;2.70;;;;;;;;;;5112430;28;20020;-61
2023/12/25 12:06:15;;;;;;;3.92;2.80;;;;;;;;;;5113470;28;20051;-62
2023/12/25 12:08:42;;;;;;;4.38;2.88;;;;;;;;;;5111950;28;20032;-61
2023/12/25 12:11:14;;;;;;;5.97;2.65;;;;;;;;;;5111397;28;20038;-62
2023/12/25 12:13:40;;;;;;;3.58;2.20;;;;;;;;;;5099462;28;20032;-62
2023/12/25 12:16:06;;;;;;;2.97;2.22;;;;;;;;;;5101786;28;20122;-60
2023/12/25 12:18:32;;;;;;;2.83;1.83;;;;;;;;;;5087059;28;20111;-59
2023/12/25 12:20:58;;;;;;;2.92;1.52;;;;;;;;;;5100263;28;20048;-59
2023/12/25 12:23:24;;;;;;;3.65;1.30;;;;;;;;;;5105325;28;20035;-60
2023/12/25 12:25:50;;;;;;;2.45;1.40;;;;;;;;;;5100011;28;20280;-62
2023/12/25 12:28:16;;;;;;;1.73;1.25;;;;;;;;;;5099951;28;20028;-62
2023/12/25 12:30:41;;;;;;;1.27;1.17;;;;;;;;;;5103901;28;20078;-59
2023/12/25 12:33:08;;;;;;;1.35;1.23;;;;;;;;;;5099747;28;20040;-62
2023/12/25 12:35:34;;;;;;;1.70;1.52;;;;;;;;;;5103610;28;20047;-61
2023/12/25 12:38:00;;;;;;;2.72;1.70;;;;;;;;;;5101041;28;20028;-63
2023/12/25 12:40:27;;;;;;;2.67;2.00;;;;;;;;;;5107311;28;20047;-62
2023/12/25 12:42:53;;;;;;;4.72;2.90;;;;;;;;;;5108387;28;20153;-61
2023/12/25 12:45:18;;;;;;;4.55;3.28;;;;;;;;;;5104127;28;20395;-61
2023/12/25 12:47:45;;;;;;;3.63;2.40;;;;;;;;;;5097167;28;20518;-61
2023/12/25 12:50:12;;;;;;;4.38;2.88;;;;;;;;;;5102617;28;20472;-63
2023/12/25 12:52:37;;;;;;;4.82;2.70;;;;;;;;;;5095848;28;20036;-61
2023/12/25 12:55:10;;;;;;;3.28;2.40;;;;;;;;;;5092250;28;20031;-61
2023/12/25 12:57:35;;;;;;;1.88;1.02;;;;;;;;;;5090977;28;20032;-61
2023/12/25 13:00:00;;;;;;;2.00;1.58;;;;;;;;;;5109572;28;20503;-60
2023/12/25 13:02:27;;;;;;;2.95;1.52;;;;;;;;;;5111540;28;20031;-61
2023/12/25 13:04:53;;;;;;;2.13;1.30;;;;;;;;;;5107222;28;20196;-60
2023/12/25 13:07:19;;;;;;;1.13;1.00;;;;;;;;;;5091884;28;20111;-61
2023/12/25 13:09:48;;;;;;;1.60;1.30;;;;;;;;;;5108641;28;20353;-61
2023/12/25 13:12:13;;;;;;;1.52;1.30;;;;;;;;;;5112008;28;20472;-61
2023/12/25 13:14:39;;;;;;;3.20;1.30;;;;;;;;;;5111270;28;20082;-60
2023/12/25 13:17:04;;;;;;;2.72;1.33;;;;;;;;;;5111680;28;20044;-60
2023/12/25 13:19:30;;;;;;;3.33;1.70;;;;;;;;;;5111888;28;20032;-59
2023/12/25 13:21:56;;;;;;;3.10;2.20;;;;;;;;;;5111573;28;20051;-59
2023/12/25 13:24:21;;;;;;;3.45;2.20;;;;;;;;;;5111902;28;20020;-59
2023/12/25 13:26:48;;;;;;;5.47;2.25;;;;;;;;;;5111019;28;20035;-60
2023/12/25 13:29:13;;;;;;;1.88;1.65;;;;;;;;;;5112135;28;20131;-59
2023/12/25 13:31:39;;;;;;;4.85;1.80;;;;;;;;;;5109366;28;20505;-59
2023/12/25 13:34:04;;;;;;;3.20;1.75;;;;;;;;;;5112251;28;20084;-59
2023/12/25 13:36:30;;;;;;;4.47;2.30;;;;;;;;;;5111366;28;20027;-59
2023/12/25 13:38:55;;;;;;;3.72;2.30;;;;;;;;;;5110039;28;20192;-59
2023/12/25 13:41:21;;;;;;;1.90;1.38;;;;;;;;;;5112292;28;20373;-59
2023/12/25 13:43:48;;;;;;;2.60;1.70;;;;;;;;;;5110676;28;20487;-60
2023/12/25 13:46:14;;;;;;;3.65;1.92;;;;;;;;;;5111162;28;20024;-63
2023/12/25 13:48:40;;;;;;;4.57;1.70;;;;;;;;;;5110902;28;20173;-58
2023/12/25 13:51:05;;;;;;;1.92;1.13;;;;;;;;;;5102001;28;20392;-61
2023/12/25 13:53:31;;;;;;;5.03;1.77;;;;;;;;;;5110966;28;20027;-59
2023/12/25 13:55:56;;;;;;;8.52;3.78;;;;;;;;;;5100387;28;20459;-59
2023/12/25 13:58:22;;;;;;;11.25;5.00;;;;;;;;;;5113102;28;20481;-59
2023/12/25 14:00:48;;;;;;;4.30;1.77;;;;;;;;;;5104565;28;20027;-59
2023/12/25 14:03:13;;;;;;;2.15;1.02;;;;;;;;;;5095604;28;20032;-61
2023/12/25 14:05:39;;;;;;;2.63;1.70;;;;;;;;;;5094704;28;20032;-58
2023/12/25 14:08:05;;;;;;;3.10;1.40;;;;;;;;;;5095244;28;20063;-60
2023/12/25 14:10:30;;;;;;;0.93;0.88;;;;;;;;;;5100174;28;20023;-59
2023/12/25 14:12:56;;;;;;;1.92;1.08;;;;;;;;;;5113981;28;20100;-61
2023/12/25 14:15:23;;;;;;;5.22;1.63;;;;;;;;;;5115508;28;20031;-61
2023/12/25 14:17:51;;;;;;;3.67;1.52;;;;;;;;;;5114175;28;20063;-60
2023/12/25 14:20:17;;;;;;;2.05;1.30;;;;;;;;;;5114746;28;20028;-59
2023/12/25 14:22:43;;;;;;;5.20;1.75;;;;;;;;;;5114636;28;20035;-60
2023/12/25 14:25:08;;;;;;;5.88;1.55;;;;;;;;;;5115318;28;20031;-60
2023/12/25 14:27:34;;;;;;;2.10;1.55;;;;;;;;;;5108350;28;20079;-61
2023/12/25 14:29:59;;;;;;;4.53;1.60;;;;;;;;;;5100269;28;20027;-63
2023/12/25 14:32:25;;;;;;;5.88;1.90;;;;;;;;;;5096769;28;20036;-61
2023/12/25 14:34:50;;;;;;;6.03;2.03;;;;;;;;;;5096012;28;20039;-60
2023/12/25 14:37:16;;;;;;;5.68;2.20;;;;;;;;;;5115243;28;20027;-60